SBSV/SSA METAR and TAF weather

Enter ICAO airport designator
Station Type Date Time Source
SBSV METAR 2019/02/22 23:00 UTC NOAA

SBSV 222300Z 09009KT 9999 SCT020 29/24 Q1014


Station Type Date Time Source
SBSV Decoded METAR 2019/02/22 23:00 UTC NOAA

Salvador Aeroporto , Brazil (SBSV) 12-54S 038-20W 13M
Feb 22, 2019 - 06:00 PM EST / 2019.02.22 2300 UTC
Wind: from the E (090 degrees) at 10 MPH (9 KT):0
Visibility: greater than 7 mile(s):0
Sky conditions: partly cloudy
Temperature: 84 F (29 C)
Dew Point: 75 F (24 C)
Relative Humidity: 74%
Pressure (altimeter): 29.94 in. Hg (1014 hPa)
ob: SBSV 222300Z 09009KT 9999 SCT020 29/24 Q1014
cycle: 23

Station Type Date Time Source
SBSV TAF 2019/02/22 18:21 UTC NOAA

TAF SBSV 221600Z 2218/2318 12010KT 9999 FEW020 FEW025TCU TN27/2308Z T X32/2315Z
BECMG 2223/2301 09012KT SCT020
RMK PEQ


Example: see airport list